createdAt,value
2019-01-20T00:01:50.688Z,-0.92
2019-01-20T00:04:20.629Z,-0.90
2019-01-20T00:06:50.524Z,-0.95
2019-01-20T00:09:20.447Z,-1.00
2019-01-20T00:11:50.473Z,-1.01
2019-01-20T00:14:20.345Z,-1.14
2019-01-20T00:16:50.242Z,-1.28
2019-01-20T00:19:20.280Z,-1.12
2019-01-20T00:21:51.423Z,-1.10
2019-01-20T00:24:21.507Z,-1.13
2019-01-20T00:26:51.543Z,-1.12
2019-01-20T00:29:21.587Z,-1.35
2019-01-20T00:31:51.561Z,-1.84
2019-01-20T00:34:21.675Z,-1.61
2019-01-20T00:36:51.610Z,-1.57
2019-01-20T00:39:22.007Z,-1.39
2019-01-20T00:41:51.854Z,-1.32
2019-01-20T00:44:21.825Z,-1.34
2019-01-20T00:46:51.747Z,-1.34
2019-01-20T00:49:21.526Z,-1.37
2019-01-20T00:51:51.336Z,-1.34
2019-01-20T00:54:21.195Z,-1.28
2019-01-20T00:56:52.518Z,-1.40
2019-01-20T00:59:22.460Z,-1.33
2019-01-20T01:01:52.310Z,-1.35
2019-01-20T01:04:22.164Z,-1.36
2019-01-20T01:06:52.040Z,-1.38
2019-01-20T01:09:21.816Z,-1.46
2019-01-20T01:11:51.638Z,-1.52
2019-01-20T01:14:21.586Z,-1.45
2019-01-20T01:16:52.385Z,-1.42
2019-01-20T01:19:22.256Z,-1.60
2019-01-20T01:21:52.287Z,-1.68
2019-01-20T01:24:22.169Z,-1.60
2019-01-20T01:26:52.306Z,-1.49
2019-01-20T01:29:22.158Z,-1.47
2019-01-20T01:31:52.366Z,-1.47
2019-01-20T01:34:22.206Z,-1.47
2019-01-20T01:36:52.055Z,-1.58
2019-01-20T01:39:23.049Z,-1.65
2019-01-20T01:41:53.868Z,-1.72
2019-01-20T01:44:23.806Z,-1.63
2019-01-20T01:46:53.618Z,-1.65
2019-01-20T01:49:23.388Z,-1.53
2019-01-20T01:51:53.304Z,-1.47
2019-01-20T01:54:23.123Z,-1.50
2019-01-20T01:56:52.957Z,-1.55
2019-01-20T01:59:22.825Z,-1.52
2019-01-20T02:01:52.669Z,-1.54
2019-01-20T02:04:22.498Z,-1.52
2019-01-20T02:06:52.402Z,-1.52
2019-01-20T02:09:22.276Z,-1.48
2019-01-20T02:11:52.026Z,-1.55
2019-01-20T02:14:21.856Z,-1.73
2019-01-20T02:16:51.717Z,-1.73
2019-01-20T02:19:21.506Z,-1.92
2019-01-20T02:21:51.332Z,-1.91
2019-01-20T02:24:21.052Z,-1.94
2019-01-20T02:26:50.963Z,-1.91
2019-01-20T02:29:20.872Z,-2.14
2019-01-20T02:31:50.651Z,-1.94
2019-01-20T02:34:21.488Z,-1.90
2019-01-20T02:36:51.379Z,-2.01
2019-01-20T02:39:21.282Z,-2.07
2019-01-20T02:41:55.330Z,-2.14
2019-01-20T02:44:22.641Z,-2.06
2019-01-20T02:46:52.553Z,-1.98
2019-01-20T02:49:22.486Z,-2.13
2019-01-20T02:51:52.409Z,-2.11
2019-01-20T02:54:22.247Z,-2.01
2019-01-20T02:56:52.061Z,-2.00
2019-01-20T02:59:21.816Z,-1.98
2019-01-20T03:01:51.727Z,-2.18
2019-01-20T03:04:25.585Z,-2.15
2019-01-20T03:06:55.634Z,-2.09
2019-01-20T03:09:25.656Z,-2.08
2019-01-20T03:12:03.246Z,-2.15
2019-01-20T03:14:27.615Z,-2.03
2019-01-20T03:16:57.480Z,-2.14
2019-01-20T03:19:27.397Z,-2.36
2019-01-20T03:21:57.216Z,-2.30
2019-01-20T03:24:27.058Z,-2.29
2019-01-20T03:26:57.041Z,-2.35
2019-01-20T03:29:26.717Z,-2.41
2019-01-20T03:31:57.050Z,-2.39
2019-01-20T03:34:26.812Z,-2.32
2019-01-20T03:36:56.739Z,-2.28
2019-01-20T03:39:26.590Z,-2.37
2019-01-20T03:41:56.378Z,-2.44
2019-01-20T03:44:26.319Z,-2.33
2019-01-20T03:46:56.547Z,-2.44
2019-01-20T03:49:26.519Z,-2.37
2019-01-20T03:51:56.419Z,-2.37
2019-01-20T03:54:26.267Z,-2.44
2019-01-20T03:56:56.121Z,-2.38
2019-01-20T03:59:26.003Z,-2.37
2019-01-20T04:01:56.759Z,-2.41
2019-01-20T04:04:26.631Z,-2.38
2019-01-20T04:06:56.524Z,-2.42
2019-01-20T04:09:26.379Z,-2.31
2019-01-20T04:11:56.336Z,-2.27
2019-01-20T04:14:26.181Z,-2.35
2019-01-20T04:16:56.096Z,-2.47
2019-01-20T04:19:26.018Z,-2.35
2019-01-20T04:21:55.825Z,-2.35
2019-01-20T04:24:25.697Z,-2.28
2019-01-20T04:26:55.424Z,-2.45
2019-01-20T04:29:25.191Z,-2.30
2019-01-20T04:31:55.109Z,-2.47
2019-01-20T04:34:25.039Z,-2.58
2019-01-20T04:36:54.809Z,-2.63
2019-01-20T04:39:26.779Z,-2.66
2019-01-20T04:41:56.692Z,-2.56
2019-01-20T04:44:26.547Z,-3.06
2019-01-20T04:46:56.321Z,-3.02
2019-01-20T04:49:26.129Z,-2.90
2019-01-20T04:51:55.968Z,-2.89
2019-01-20T04:54:25.746Z,-2.76
2019-01-20T04:56:55.576Z,-2.81
2019-01-20T04:59:25.475Z,-2.94
2019-01-20T05:01:55.340Z,-3.05
2019-01-20T05:04:25.060Z,-3.05
2019-01-20T05:06:54.793Z,-2.98
2019-01-20T05:09:24.589Z,-3.01
2019-01-20T05:11:54.345Z,-2.91
2019-01-20T05:14:24.156Z,-2.95
2019-01-20T05:16:54.566Z,-2.81
2019-01-20T05:19:24.407Z,-2.87
2019-01-20T05:21:54.231Z,-2.87
2019-01-20T05:24:24.129Z,-3.02
2019-01-20T05:26:53.945Z,-2.91
2019-01-20T05:29:23.772Z,-2.86
2019-01-20T05:31:53.552Z,-2.88
2019-01-20T05:34:23.444Z,-2.84
2019-01-20T05:36:53.346Z,-3.17
2019-01-20T05:39:23.106Z,-3.08
2019-01-20T05:41:52.997Z,-2.95
2019-01-20T05:44:22.891Z,-2.86
2019-01-20T05:46:52.657Z,-2.92
2019-01-20T05:49:22.572Z,-3.08
2019-01-20T05:51:52.330Z,-3.04
2019-01-20T05:54:23.022Z,-3.14
2019-01-20T05:56:54.208Z,-3.17
2019-01-20T05:59:24.228Z,-3.29
2019-01-20T06:01:54.121Z,-3.21
2019-01-20T06:04:24.026Z,-3.11
2019-01-20T06:06:53.945Z,-3.05
2019-01-20T06:09:23.788Z,-3.24
2019-01-20T06:11:53.524Z,-3.21
2019-01-20T06:14:23.434Z,-3.22
2019-01-20T06:16:53.178Z,-3.10
2019-01-20T06:19:23.034Z,-3.14
2019-01-20T06:21:52.898Z,-3.08
2019-01-20T06:24:22.828Z,-3.07
2019-01-20T06:27:01.904Z,-3.03
2019-01-20T06:29:35.389Z,-2.97
2019-01-20T06:32:05.324Z,-3.02
2019-01-20T06:34:35.177Z,-3.00
2019-01-20T06:37:04.948Z,-3.07
2019-01-20T06:39:34.886Z,-3.04
2019-01-20T06:42:05.724Z,-3.13
2019-01-20T06:44:35.641Z,-3.04
2019-01-20T06:47:05.507Z,-3.03
2019-01-20T06:49:35.381Z,-3.03
2019-01-20T06:52:07.411Z,-3.05
2019-01-20T06:54:37.436Z,-3.15
2019-01-20T06:57:08.980Z,-3.00
2019-01-20T06:59:38.815Z,-2.97
2019-01-20T07:02:08.727Z,-3.00
2019-01-20T07:04:38.499Z,-3.43
2019-01-20T07:07:08.698Z,-3.39
2019-01-20T07:09:40.794Z,-3.31
2019-01-20T07:12:10.635Z,-3.44
2019-01-20T07:14:40.419Z,-3.30
2019-01-20T07:17:10.359Z,-3.25
2019-01-20T07:19:40.235Z,-3.23
2019-01-20T07:22:11.802Z,-3.47
2019-01-20T07:24:44.547Z,-3.20
2019-01-20T07:27:17.829Z,-3.01
2019-01-20T07:29:48.780Z,-2.99
2019-01-20T07:32:19.707Z,-2.99
2019-01-20T07:34:49.673Z,-3.15
2019-01-20T07:37:22.463Z,-3.13
2019-01-20T07:39:54.657Z,-3.15
2019-01-20T07:42:24.493Z,-3.31
2019-01-20T07:44:54.489Z,-3.27
2019-01-20T07:47:24.378Z,-3.28
2019-01-20T07:49:54.322Z,-3.25
2019-01-20T07:52:24.056Z,-3.14
2019-01-20T07:54:54.429Z,-3.12
2019-01-20T07:57:24.176Z,-3.08
2019-01-20T07:59:54.057Z,-3.41
2019-01-20T08:02:28.091Z,-3.45
2019-01-20T08:04:57.949Z,-3.57
2019-01-20T08:07:27.687Z,-3.22
2019-01-20T08:09:57.505Z,-3.35
2019-01-20T08:12:27.347Z,-3.15
2019-01-20T08:14:57.213Z,-2.92
2019-01-20T08:17:34.839Z,-2.88
2019-01-20T08:20:01.719Z,-2.96
2019-01-20T08:22:31.772Z,-3.01
2019-01-20T08:25:01.646Z,-2.83
2019-01-20T08:27:31.507Z,-2.73
2019-01-20T08:30:01.445Z,-3.35
2019-01-20T08:32:32.639Z,-3.50
2019-01-20T08:35:02.526Z,-3.45
2019-01-20T08:37:33.376Z,-3.11
2019-01-20T08:40:17.655Z,-2.79
2019-01-20T08:42:47.534Z,-2.65
2019-01-20T08:45:44.813Z,-2.42
2019-01-20T08:48:17.602Z,-2.32
2019-01-20T08:50:48.592Z,-2.33
2019-01-20T08:53:19.720Z,-2.30
2019-01-20T08:55:49.650Z,-2.18
2019-01-20T08:58:20.739Z,-2.46
2019-01-20T09:00:50.592Z,-2.20
2019-01-20T09:03:20.376Z,-2.16
2019-01-20T09:05:50.213Z,-2.27
2019-01-20T09:08:20.723Z,-2.11
2019-01-20T09:10:50.656Z,-2.25
2019-01-20T09:13:20.933Z,-2.42
2019-01-20T09:15:50.898Z,-2.36
2019-01-20T09:18:20.802Z,-2.12
2019-01-20T09:20:51.620Z,-1.79
2019-01-20T09:23:24.994Z,-1.57
2019-01-20T09:25:54.908Z,-1.50
2019-01-20T09:28:24.826Z,-1.64
2019-01-20T09:30:58.104Z,-1.85
2019-01-20T09:33:28.839Z,-1.62
2019-01-20T09:36:00.786Z,-1.53
2019-01-20T09:38:30.621Z,-1.33
2019-01-20T09:41:02.052Z,-1.14
2019-01-20T09:43:31.896Z,-1.07
2019-01-20T09:46:03.746Z,-1.14
2019-01-20T09:48:33.660Z,-1.04
2019-01-20T09:51:06.828Z,-1.27
2019-01-20T09:53:36.764Z,-1.26
2019-01-20T09:56:06.801Z,-1.40
2019-01-20T09:58:36.726Z,-1.06
2019-01-20T10:01:06.754Z,-0.62
2019-01-20T10:03:39.399Z,-0.67
2019-01-20T10:06:10.904Z,-0.38
2019-01-20T10:08:41.049Z,-0.35
2019-01-20T10:11:13.044Z,-0.20
2019-01-20T10:13:45.815Z,0.02
2019-01-20T10:16:15.707Z,-0.11
2019-01-20T10:18:45.625Z,0.13
2019-01-20T10:21:15.868Z,0.37
2019-01-20T10:23:49.440Z,0.47
2019-01-20T10:26:19.502Z,0.21
2019-01-20T10:28:49.431Z,-0.24
2019-01-20T10:31:19.471Z,-0.53
2019-01-20T10:33:49.578Z,-0.24
2019-01-20T10:36:19.853Z,-0.04
2019-01-20T10:38:49.992Z,0.18
2019-01-20T10:41:19.884Z,0.30
2019-01-20T10:43:50.061Z,0.43
2019-01-20T10:46:21.982Z,0.46
2019-01-20T10:48:51.948Z,0.24
2019-01-20T10:51:25.614Z,-0.14
2019-01-20T10:53:56.399Z,0.02
2019-01-20T10:56:26.253Z,0.40
2019-01-20T10:58:56.205Z,0.84
2019-01-20T11:01:26.627Z,1.29
2019-01-20T11:03:56.518Z,1.86
2019-01-20T11:06:26.513Z,1.81
2019-01-20T11:08:57.864Z,1.91
2019-01-20T11:11:27.855Z,1.90
2019-01-20T11:13:58.445Z,1.40
2019-01-20T11:16:28.459Z,1.30
2019-01-20T11:18:58.394Z,1.49
2019-01-20T11:21:28.851Z,1.50
2019-01-20T11:23:58.909Z,1.40
2019-01-20T11:26:28.893Z,0.96
2019-01-20T11:29:01.574Z,1.20
2019-01-20T11:31:31.473Z,1.06
2019-01-20T11:34:01.450Z,0.89
2019-01-20T11:36:31.672Z,0.66
2019-01-20T11:39:04.436Z,0.89
2019-01-20T11:41:34.470Z,1.25
2019-01-20T11:44:04.385Z,1.05
2019-01-20T11:46:34.241Z,1.28
2019-01-20T11:49:04.200Z,1.35
2019-01-20T11:51:35.353Z,1.30
2019-01-20T11:54:05.239Z,1.28
2019-01-20T11:56:35.149Z,1.52
2019-01-20T11:59:05.009Z,1.74
2019-01-20T12:01:35.053Z,0.99
2019-01-20T12:04:05.047Z,0.72
2019-01-20T12:06:37.739Z,1.34
2019-01-20T12:09:08.874Z,1.52
2019-01-20T12:11:38.729Z,1.06
2019-01-20T12:14:10.140Z,0.97
2019-01-20T12:16:41.381Z,0.97
2019-01-20T12:19:11.326Z,1.34
2019-01-20T12:21:41.611Z,1.38
2019-01-20T12:24:16.061Z,1.12
2019-01-20T12:26:45.843Z,0.75
2019-01-20T12:29:15.815Z,0.73
2019-01-20T12:31:45.576Z,0.48
2019-01-20T12:34:15.448Z,0.54
2019-01-20T12:36:48.371Z,0.50
2019-01-20T12:39:18.699Z,0.55
2019-01-20T12:41:48.630Z,0.58
2019-01-20T12:44:18.751Z,0.60
2019-01-20T12:46:48.708Z,0.41
2019-01-20T12:49:18.584Z,0.57
2019-01-20T12:51:48.548Z,0.66
2019-01-20T12:54:18.465Z,0.52
2019-01-20T12:56:48.587Z,0.62
2019-01-20T12:59:18.448Z,0.60
2019-01-20T13:01:48.365Z,0.24
2019-01-20T13:04:18.235Z,0.45
2019-01-20T13:06:48.124Z,0.38
2019-01-20T13:09:18.241Z,0.58
2019-01-20T13:11:48.293Z,0.59
2019-01-20T13:14:18.447Z,0.80
2019-01-20T13:16:48.704Z,0.93
2019-01-20T13:19:19.811Z,0.84
2019-01-20T13:21:49.695Z,0.65
2019-01-20T13:24:19.657Z,0.44
2019-01-20T13:26:51.250Z,0.12
2019-01-20T13:29:21.153Z,0.49
2019-01-20T13:31:51.003Z,0.64
2019-01-20T13:34:20.945Z,0.23
2019-01-20T13:36:51.010Z,0.29
2019-01-20T13:39:25.192Z,0.24
2019-01-20T13:41:55.169Z,0.34
2019-01-20T13:44:25.056Z,0.47
2019-01-20T13:46:55.545Z,0.34
2019-01-20T13:49:25.490Z,0.20
2019-01-20T13:51:55.413Z,-0.19
2019-01-20T13:54:25.376Z,-0.54
2019-01-20T13:57:03.806Z,-0.69
2019-01-20T13:59:33.640Z,-0.38
2019-01-20T14:02:03.530Z,-0.66
2019-01-20T14:04:33.522Z,-0.52
2019-01-20T14:07:03.366Z,-1.03
2019-01-20T14:09:33.364Z,-0.66
2019-01-20T14:12:06.435Z,-0.98
2019-01-20T14:14:36.277Z,-0.83
2019-01-20T14:17:07.993Z,-0.80
2019-01-20T14:19:37.953Z,-0.46
2019-01-20T14:22:07.959Z,-0.32
2019-01-20T14:24:40.909Z,-0.35
2019-01-20T14:27:11.406Z,-0.36
2019-01-20T14:29:41.545Z,-0.30
2019-01-20T14:32:13.227Z,-0.26
2019-01-20T14:34:43.163Z,-0.36
2019-01-20T14:37:13.044Z,-0.22
2019-01-20T14:39:44.325Z,-0.22
2019-01-20T14:42:14.109Z,-0.32
2019-01-20T14:44:48.453Z,-0.28
2019-01-20T14:47:18.450Z,-0.28
2019-01-20T14:49:48.321Z,-0.29
2019-01-20T14:52:18.144Z,-0.41
2019-01-20T14:54:48.127Z,-0.59
2019-01-20T14:57:18.007Z,-0.65
2019-01-20T14:59:48.241Z,-0.40
2019-01-20T15:02:18.169Z,-0.52
2019-01-20T15:04:48.036Z,-0.42
2019-01-20T15:07:18.046Z,-0.46
2019-01-20T15:09:47.961Z,-0.41
2019-01-20T15:12:18.088Z,-0.36
2019-01-20T15:14:48.080Z,-0.60
2019-01-20T15:17:18.337Z,-0.69
2019-01-20T15:19:48.485Z,-0.71
2019-01-20T15:22:20.516Z,-0.68
2019-01-20T15:24:50.361Z,-1.10
2019-01-20T15:27:20.326Z,-1.08
2019-01-20T15:29:52.014Z,-1.09
2019-01-20T15:32:21.927Z,-1.10
2019-01-20T15:34:53.438Z,-1.08
2019-01-20T15:37:23.397Z,-1.09
2019-01-20T15:39:53.291Z,-1.07
2019-01-20T15:42:23.208Z,-1.08
2019-01-20T15:44:53.117Z,-1.17
2019-01-20T15:47:23.193Z,-1.29
2019-01-20T15:49:52.973Z,-1.14
2019-01-20T15:52:22.905Z,-1.29
2019-01-20T15:54:52.910Z,-1.23
2019-01-20T15:57:22.971Z,-1.18
2019-01-20T15:59:53.033Z,-1.18
2019-01-20T16:02:23.040Z,-1.28
2019-01-20T16:04:53.045Z,-1.31
2019-01-20T16:07:23.049Z,-1.31
2019-01-20T16:09:53.042Z,-1.26
2019-01-20T16:12:23.010Z,-1.45
2019-01-20T16:14:53.023Z,-1.50
2019-01-20T16:17:23.151Z,-1.40
2019-01-20T16:19:53.142Z,-1.33
2019-01-20T16:22:23.070Z,-1.35
2019-01-20T16:24:53.178Z,-1.34
2019-01-20T16:27:23.371Z,-1.37
2019-01-20T16:29:53.439Z,-1.32
2019-01-20T16:32:26.385Z,-1.29
2019-01-20T16:35:01.408Z,-1.32
2019-01-20T16:37:32.348Z,-1.39
2019-01-20T16:40:02.368Z,-1.44
2019-01-20T16:42:32.400Z,-1.44
2019-01-20T16:45:02.352Z,-1.47
2019-01-20T16:47:32.344Z,-1.49
2019-01-20T16:50:02.535Z,-1.54
2019-01-20T16:52:32.600Z,-1.58
2019-01-20T16:55:02.611Z,-1.60
2019-01-20T16:57:32.515Z,-1.57
2019-01-20T17:00:04.633Z,-1.54
2019-01-20T17:02:34.641Z,-1.65
2019-01-20T17:05:05.931Z,-1.60
2019-01-20T17:07:35.870Z,-1.71
2019-01-20T17:10:09.355Z,-1.74
2019-01-20T17:12:39.198Z,-1.75
2019-01-20T17:15:11.263Z,-1.67
2019-01-20T17:17:41.102Z,-1.66
2019-01-20T17:20:14.131Z,-1.68
2019-01-20T17:22:50.516Z,-1.74
2019-01-20T17:25:20.610Z,-1.74
2019-01-20T17:27:50.763Z,-1.88
2019-01-20T17:30:24.876Z,-1.93
2019-01-20T17:32:55.564Z,-2.01
2019-01-20T17:35:28.382Z,-2.39
2019-01-20T17:37:58.327Z,-2.12
2019-01-20T17:40:28.440Z,-2.11
2019-01-20T17:42:58.339Z,-1.99
2019-01-20T17:45:31.059Z,-1.99
2019-01-20T17:48:07.581Z,-2.05
2019-01-20T17:50:39.161Z,-1.93
2019-01-20T17:53:10.605Z,-1.92
2019-01-20T17:55:40.991Z,-2.00
2019-01-20T17:58:10.897Z,-1.93
2019-01-20T18:00:57.967Z,-2.07
2019-01-20T18:03:28.067Z,-2.00
2019-01-20T18:06:02.270Z,-2.00
2019-01-20T18:08:31.002Z,-2.05
2019-01-20T18:11:00.933Z,-2.08
2019-01-20T18:13:31.003Z,-2.32
2019-01-20T18:16:00.997Z,-2.19
2019-01-20T18:18:30.956Z,-2.18
2019-01-20T18:21:03.321Z,-2.23
2019-01-20T18:23:36.127Z,-2.32
2019-01-20T18:26:06.024Z,-2.22
2019-01-20T18:28:36.057Z,-2.15
2019-01-20T18:31:08.529Z,-2.19
2019-01-20T18:33:38.547Z,-2.28
2019-01-20T18:36:08.647Z,-2.28
2019-01-20T18:38:38.615Z,-2.31
2019-01-20T18:41:08.556Z,-2.39
2019-01-20T18:43:42.614Z,-2.56
2019-01-20T18:46:12.734Z,-2.45
2019-01-20T18:48:42.655Z,-2.78
2019-01-20T18:51:12.668Z,-2.68
2019-01-20T18:53:43.866Z,-2.59
2019-01-20T18:56:13.827Z,-2.62
2019-01-20T18:58:46.403Z,-2.69
2019-01-20T19:01:17.515Z,-2.89
2019-01-20T19:03:50.307Z,-2.78
2019-01-20T19:06:20.917Z,-2.79
2019-01-20T19:08:52.958Z,-2.97
2019-01-20T19:11:23.013Z,-2.99
2019-01-20T19:13:53.256Z,-3.01
2019-01-20T19:16:33.689Z,-2.96
2019-01-20T19:19:03.667Z,-2.79
2019-01-20T19:21:34.377Z,-2.82
2019-01-20T19:24:04.301Z,-2.76
2019-01-20T19:26:34.298Z,-2.71
2019-01-20T19:29:04.658Z,-2.80
2019-01-20T19:31:34.520Z,-2.94
2019-01-20T19:34:05.788Z,-2.81
2019-01-20T19:36:35.705Z,-2.80
2019-01-20T19:39:08.175Z,-2.77
2019-01-20T19:41:38.176Z,-2.74
2019-01-20T19:44:09.843Z,-2.68
2019-01-20T19:46:39.802Z,-2.64
2019-01-20T19:49:13.951Z,-2.61
2019-01-20T19:51:49.664Z,-2.77
2019-01-20T19:54:21.142Z,-2.68
2019-01-20T19:56:51.046Z,-2.64
2019-01-20T19:59:21.228Z,-2.74
2019-01-20T20:01:54.227Z,-2.77
2019-01-20T20:04:25.181Z,-2.66
2019-01-20T20:06:55.901Z,-2.96
2019-01-20T20:09:25.824Z,-3.01
2019-01-20T20:11:55.680Z,-3.02
2019-01-20T20:14:25.673Z,-3.05
2019-01-20T20:16:55.677Z,-2.86
2019-01-20T20:19:26.049Z,-2.92
2019-01-20T20:21:57.690Z,-2.90
2019-01-20T20:24:27.482Z,-2.93
2019-01-20T20:26:57.558Z,-3.05
2019-01-20T20:29:27.640Z,-3.51
2019-01-20T20:32:01.680Z,-3.79
2019-01-20T20:34:34.701Z,-3.95
2019-01-20T20:37:04.584Z,-3.42
2019-01-20T20:39:34.620Z,-3.48
2019-01-20T20:42:04.604Z,-3.38
2019-01-20T20:44:34.675Z,-3.77
2019-01-20T20:47:09.168Z,-3.82
2019-01-20T20:49:45.618Z,-3.77
2019-01-20T20:52:15.640Z,-3.37
2019-01-20T20:54:45.573Z,-3.27
2019-01-20T20:57:15.583Z,-3.20
2019-01-20T20:59:45.629Z,-3.08
2019-01-20T21:02:15.752Z,-2.98
2019-01-20T21:04:45.602Z,-2.99
2019-01-20T21:07:15.686Z,-2.96
2019-01-20T21:09:45.601Z,-2.87
2019-01-20T21:12:15.712Z,-2.80
2019-01-20T21:14:45.682Z,-2.81
2019-01-20T21:17:15.711Z,-2.91
2019-01-20T21:19:47.841Z,-3.09
2019-01-20T21:22:17.916Z,-3.07
2019-01-20T21:24:48.068Z,-3.28
2019-01-20T21:27:18.182Z,-3.13
2019-01-20T21:29:48.130Z,-3.49
2019-01-20T21:32:18.212Z,-3.40
2019-01-20T21:34:48.161Z,-3.25
2019-01-20T21:37:18.174Z,-3.22
2019-01-20T21:39:48.746Z,-3.22
2019-01-20T21:42:18.667Z,-3.23
2019-01-20T21:44:48.943Z,-3.88
2019-01-20T21:47:18.927Z,-3.87
2019-01-20T21:49:48.963Z,-3.63
2019-01-20T21:52:19.052Z,-3.45
2019-01-20T21:54:49.111Z,-3.29
2019-01-20T21:57:19.021Z,-3.34
2019-01-20T21:59:50.135Z,-3.60
2019-01-20T22:02:20.228Z,-3.44
2019-01-20T22:04:50.171Z,-3.66
2019-01-20T22:07:22.975Z,-3.53
2019-01-20T22:09:52.970Z,-3.48
2019-01-20T22:12:22.846Z,-3.44
2019-01-20T22:14:52.793Z,-3.37
2019-01-20T22:17:22.797Z,-3.30
2019-01-20T22:19:52.925Z,-3.23
2019-01-20T22:22:23.957Z,-3.20
2019-01-20T22:24:53.929Z,-3.18
2019-01-20T22:27:23.900Z,-3.18
2019-01-20T22:29:56.859Z,-3.14
2019-01-20T22:32:27.341Z,-3.18
2019-01-20T22:34:57.273Z,-3.22
2019-01-20T22:37:27.303Z,-3.26
2019-01-20T22:39:57.289Z,-3.16
2019-01-20T22:42:27.365Z,-3.21
2019-01-20T22:44:57.283Z,-3.23
2019-01-20T22:47:27.194Z,-3.33
2019-01-20T22:49:57.287Z,-3.31
2019-01-20T22:52:27.310Z,-3.37
2019-01-20T22:54:57.174Z,-3.21
2019-01-20T22:57:27.043Z,-3.09
2019-01-20T22:59:56.947Z,-3.16
2019-01-20T23:02:27.137Z,-3.18
2019-01-20T23:04:56.911Z,-3.12
2019-01-20T23:07:27.055Z,-3.06
2019-01-20T23:09:56.822Z,-3.03
2019-01-20T23:12:26.780Z,-3.01
2019-01-20T23:14:56.654Z,-2.97
2019-01-20T23:17:26.512Z,-2.80
2019-01-20T23:19:56.463Z,-2.62
2019-01-20T23:22:26.324Z,-2.59
2019-01-20T23:24:56.265Z,-3.18
2019-01-20T23:27:26.371Z,-3.25
2019-01-20T23:29:56.310Z,-3.10
2019-01-20T23:32:26.279Z,-2.89
2019-01-20T23:34:56.272Z,-2.78
2019-01-20T23:37:26.185Z,-2.70
2019-01-20T23:39:56.414Z,-2.66
2019-01-20T23:42:26.327Z,-2.66
2019-01-20T23:44:56.167Z,-2.84
2019-01-20T23:47:27.791Z,-2.86
2019-01-20T23:49:57.634Z,-2.86
2019-01-20T23:52:27.557Z,-2.96
2019-01-20T23:54:57.503Z,-2.91
2019-01-20T23:57:27.483Z,-2.68
2019-01-20T23:59:57.499Z,-2.72
